Time;durP1;ratioP1;P1;durP2;ratioP2;P2;SDS_P1;SDS_P2;PMS_P1;PMS_P2;Temp;Humidity;BMP_temperature;BMP_pressure;BME280_temperature;BME280_humidity;BME280_pressure;Samples;Min_cycle;Max_cycle;Signal;HPM_P1;HPM_P2
2022/11/27 00:01:49;;;;;;;26.10;9.20;;;;;;;;;;5038743;28;20124;-72
2022/11/27 00:04:15;;;;;;;23.17;8.98;;;;;;;;;;5040098;28;20389;-72
2022/11/27 00:06:41;;;;;;;21.83;8.23;;;;;;;;;;5041522;28;20040;-70
2022/11/27 00:09:10;;;;;;;24.20;8.70;;;;;;;;;;5038138;28;20060;-73
2022/11/27 00:11:38;;;;;;;25.77;8.98;;;;;;;;;;5041179;28;20098;-72
2022/11/27 00:14:05;;;;;;;25.00;8.32;;;;;;;;;;5021970;28;20095;-71
2022/11/27 00:16:31;;;;;;;20.63;8.15;;;;;;;;;;5040429;28;20045;-72
2022/11/27 00:18:57;;;;;;;24.67;8.82;;;;;;;;;;5040398;28;20076;-72
2022/11/27 00:21:23;;;;;;;27.65;9.75;;;;;;;;;;5027014;28;20041;-72
2022/11/27 00:23:53;;;;;;;20.63;8.65;;;;;;;;;;5047944;28;20040;-72
2022/11/27 00:26:19;;;;;;;24.00;8.57;;;;;;;;;;5045300;28;20068;-72
2022/11/27 00:28:45;;;;;;;25.00;9.00;;;;;;;;;;5035102;28;20102;-72
2022/11/27 00:31:19;;;;;;;22.65;8.68;;;;;;;;;;5043117;28;20061;-72
2022/11/27 00:33:45;;;;;;;23.02;9.27;;;;;;;;;;5027222;28;20072;-72
2022/11/27 00:36:11;;;;;;;25.92;8.85;;;;;;;;;;5043470;28;20037;-72
2022/11/27 00:38:37;;;;;;;20.50;8.32;;;;;;;;;;5045169;28;20129;-70
2022/11/27 00:41:07;;;;;;;23.90;8.50;;;;;;;;;;5045114;28;20130;-71
2022/11/27 00:43:34;;;;;;;22.90;8.68;;;;;;;;;;5042178;28;20137;-71
2022/11/27 00:46:00;;;;;;;27.45;8.60;;;;;;;;;;5044761;28;20044;-72
2022/11/27 00:48:26;;;;;;;23.23;8.75;;;;;;;;;;5044084;28;20045;-71
2022/11/27 00:50:57;;;;;;;23.83;8.55;;;;;;;;;;5044641;28;20068;-71
2022/11/27 00:53:23;;;;;;;21.08;8.18;;;;;;;;;;5043944;28;20819;-73
2022/11/27 00:55:49;;;;;;;24.30;8.45;;;;;;;;;;5045608;28;20076;-71
2022/11/27 00:58:15;;;;;;;23.15;8.23;;;;;;;;;;5042982;28;20507;-71
2022/11/27 01:00:41;;;;;;;23.73;9.20;;;;;;;;;;5045602;28;20407;-71
2022/11/27 01:03:07;;;;;;;20.35;8.23;;;;;;;;;;5042694;28;20096;-72
2022/11/27 01:05:35;;;;;;;23.00;8.52;;;;;;;;;;5043286;28;20108;-70
2022/11/27 01:08:01;;;;;;;23.55;8.80;;;;;;;;;;5042731;28;20044;-73
2022/11/27 01:10:27;;;;;;;18.88;7.90;;;;;;;;;;5043529;28;20051;-72
2022/11/27 01:12:53;;;;;;;22.60;8.63;;;;;;;;;;5045178;28;20037;-70
2022/11/27 01:15:19;;;;;;;24.30;8.60;;;;;;;;;;5045646;28;20555;-71
2022/11/27 01:17:45;;;;;;;19.35;8.43;;;;;;;;;;5042779;28;20049;-72
2022/11/27 01:20:11;;;;;;;21.95;8.25;;;;;;;;;;5043746;28;20461;-70
2022/11/27 01:22:38;;;;;;;27.17;8.20;;;;;;;;;;5025463;28;20037;-70
2022/11/27 01:25:04;;;;;;;18.42;8.13;;;;;;;;;;5044939;28;20047;-70
2022/11/27 01:27:30;;;;;;;21.13;8.00;;;;;;;;;;5042635;28;20037;-70
2022/11/27 01:29:56;;;;;;;18.42;8.25;;;;;;;;;;5042963;28;20886;-73
2022/11/27 01:32:22;;;;;;;25.33;8.10;;;;;;;;;;5039926;28;20041;-70
2022/11/27 01:34:48;;;;;;;29.05;9.15;;;;;;;;;;5041696;28;20066;-70
2022/11/27 01:37:14;;;;;;;23.90;9.30;;;;;;;;;;5041020;28;20049;-70
2022/11/27 01:39:40;;;;;;;25.15;8.60;;;;;;;;;;5046296;28;20112;-70
2022/11/27 01:42:06;;;;;;;19.85;8.88;;;;;;;;;;5043633;28;20076;-73
2022/11/27 01:44:32;;;;;;;25.42;8.48;;;;;;;;;;5043340;28;20040;-73
2022/11/27 01:46:59;;;;;;;20.48;8.95;;;;;;;;;;5042583;28;20480;-70
2022/11/27 01:49:31;;;;;;;27.40;8.60;;;;;;;;;;5026647;28;20049;-73
2022/11/27 01:52:00;;;;;;;26.10;8.85;;;;;;;;;;5041627;28;20048;-71
2022/11/27 01:54:34;;;;;;;27.83;8.32;;;;;;;;;;5043076;28;20041;-71
2022/11/27 01:57:02;;;;;;;26.30;9.18;;;;;;;;;;5042458;28;20051;-71
2022/11/27 01:59:28;;;;;;;20.38;8.35;;;;;;;;;;5042272;28;20045;-70
2022/11/27 02:01:54;;;;;;;19.50;8.63;;;;;;;;;;5040098;28;20072;-72
2022/11/27 02:04:20;;;;;;;21.30;8.70;;;;;;;;;;5043254;28;20045;-72
2022/11/27 02:06:46;;;;;;;25.52;8.73;;;;;;;;;;5042407;28;20396;-72
2022/11/27 02:09:12;;;;;;;21.05;8.88;;;;;;;;;;5042820;28;20087;-71
2022/11/27 02:11:38;;;;;;;24.35;8.93;;;;;;;;;;5042015;28;20045;-72
2022/11/27 02:14:28;;;;;;;26.25;8.38;;;;;;;;;;5042515;28;20045;-72
2022/11/27 02:17:01;;;;;;;19.23;8.35;;;;;;;;;;5040479;28;20195;-72
2022/11/27 02:19:42;;;;;;;26.38;9.52;;;;;;;;;;5042188;28;20052;-72
2022/11/27 02:22:41;;;;;;;18.38;8.10;;;;;;;;;;5041583;28;20041;-72
2022/11/27 02:25:13;;;;;;;19.73;8.32;;;;;;;;;;4995488;28;20058;-71
2022/11/27 02:27:54;;;;;;;23.75;8.88;;;;;;;;;;5041564;28;20128;-71
2022/11/27 02:30:20;;;;;;;20.73;8.05;;;;;;;;;;5039844;28;20045;-71
2022/11/27 02:32:49;;;;;;;18.95;8.40;;;;;;;;;;5038837;28;20123;-73
2022/11/27 02:35:54;;;;;;;27.42;9.18;;;;;;;;;;5041312;28;20057;-71
2022/11/27 02:38:27;;;;;;;24.25;8.13;;;;;;;;;;4983588;28;20058;-72
2022/11/27 02:40:59;;;;;;;20.63;8.02;;;;;;;;;;4981443;28;20050;-72
2022/11/27 02:43:25;;;;;;;;;;;;;;;;;;5016605;28;20060;-72
2022/11/27 02:45:52;;;;;;;23.77;8.80;;;;;;;;;;5041217;28;20387;-73
2022/11/27 02:48:20;;;;;;;24.70;8.50;;;;;;;;;;5042586;28;20044;-73
2022/11/27 02:50:47;;;;;;;21.25;7.93;;;;;;;;;;5042255;28;20052;-72
2022/11/27 02:53:16;;;;;;;18.20;8.35;;;;;;;;;;5041003;28;20421;-72
2022/11/27 02:55:43;;;;;;;22.35;8.18;;;;;;;;;;5040777;28;20045;-72
2022/11/27 02:58:10;;;;;;;20.85;8.30;;;;;;;;;;5042285;28;20040;-72
2022/11/27 03:00:38;;;;;;;18.00;7.78;;;;;;;;;;5038759;28;20049;-72
2022/11/27 03:03:06;;;;;;;16.38;7.40;;;;;;;;;;5040563;28;20108;-72
2022/11/27 03:05:35;;;;;;;21.45;7.78;;;;;;;;;;5042397;28;20048;-73
2022/11/27 03:08:17;;;;;;;23.33;8.25;;;;;;;;;;5039444;28;20044;-72
2022/11/27 03:10:47;;;;;;;25.77;7.63;;;;;;;;;;5031702;28;20049;-72
2022/11/27 03:13:13;;;;;;;23.83;7.63;;;;;;;;;;5039836;28;20041;-72
2022/11/27 03:15:45;;;;;;;19.25;7.60;;;;;;;;;;5044339;28;20037;-72
2022/11/27 03:18:31;;;;;;;22.50;7.72;;;;;;;;;;5042361;28;20045;-74
2022/11/27 03:21:02;;;;;;;20.38;6.95;;;;;;;;;;5042421;28;20094;-71
2022/11/27 03:23:28;;;;;;;23.50;8.05;;;;;;;;;;5043018;28;20058;-71
2022/11/27 03:25:54;;;;;;;20.08;7.22;;;;;;;;;;5025355;28;20041;-71
2022/11/27 03:28:20;;;;;;;20.38;7.57;;;;;;;;;;5040639;28;20106;-73
2022/11/27 03:30:46;;;;;;;20.02;7.80;;;;;;;;;;5039974;28;20051;-71
2022/11/27 03:33:13;;;;;;;17.35;6.90;;;;;;;;;;5040139;28;20128;-71
2022/11/27 03:35:39;;;;;;;21.33;8.20;;;;;;;;;;5041508;28;20037;-71
2022/11/27 03:38:05;;;;;;;19.98;7.43;;;;;;;;;;5042604;28;20033;-71
2022/11/27 03:40:44;;;;;;;18.73;6.80;;;;;;;;;;5040076;28;20053;-72
2022/11/27 03:43:14;;;;;;;17.95;7.07;;;;;;;;;;5039810;28;20072;-71
2022/11/27 03:45:52;;;;;;;16.10;7.13;;;;;;;;;;5040871;28;20148;-72
2022/11/27 03:48:37;;;;;;;14.18;6.43;;;;;;;;;;5042077;28;20083;-72
2022/11/27 03:51:09;;;;;;;20.83;7.80;;;;;;;;;;5043091;28;20049;-72
2022/11/27 03:53:42;;;;;;;20.33;7.38;;;;;;;;;;5040208;28;20051;-71
2022/11/27 03:56:17;;;;;;;16.88;6.82;;;;;;;;;;5043609;28;20036;-71
2022/11/27 03:58:49;;;;;;;20.65;6.75;;;;;;;;;;5044249;28;20388;-72
2022/11/27 04:01:17;;;;;;;15.85;6.45;;;;;;;;;;5044315;28;20049;-71
2022/11/27 04:03:43;;;;;;;17.50;6.18;;;;;;;;;;5040198;28;20139;-71
2022/11/27 04:06:10;;;;;;;15.68;7.15;;;;;;;;;;5041050;28;20132;-71
2022/11/27 04:08:36;;;;;;;20.75;6.40;;;;;;;;;;5043776;28;20060;-70
2022/11/27 04:11:02;;;;;;;15.85;7.03;;;;;;;;;;5046074;28;20045;-71
2022/11/27 04:13:28;;;;;;;20.60;6.72;;;;;;;;;;5046355;28;20886;-72
2022/11/27 04:15:54;;;;;;;17.33;6.35;;;;;;;;;;5043834;28;20050;-72
2022/11/27 04:18:20;;;;;;;21.50;6.63;;;;;;;;;;5044499;28;20056;-71
2022/11/27 04:20:46;;;;;;;15.25;5.78;;;;;;;;;;5043319;28;20404;-71
2022/11/27 04:23:12;;;;;;;20.02;6.53;;;;;;;;;;5041640;28;20044;-72
2022/11/27 04:25:38;;;;;;;18.38;6.47;;;;;;;;;;5044012;28;20550;-70
2022/11/27 04:28:04;;;;;;;18.20;5.93;;;;;;;;;;5044661;28;20049;-72
2022/11/27 04:30:30;;;;;;;18.05;6.55;;;;;;;;;;5043774;28;20044;-72
2022/11/27 04:32:56;;;;;;;19.73;5.90;;;;;;;;;;5044878;28;20450;-71
2022/11/27 04:35:22;;;;;;;15.50;6.00;;;;;;;;;;5041530;28;20110;-71
2022/11/27 04:37:48;;;;;;;19.10;6.22;;;;;;;;;;5028128;28;20045;-72
2022/11/27 04:40:14;;;;;;;15.05;5.68;;;;;;;;;;5044481;28;20047;-73
2022/11/27 04:42:40;;;;;;;16.13;5.65;;;;;;;;;;5043066;28;20033;-71
2022/11/27 04:45:07;;;;;;;12.77;5.38;;;;;;;;;;5043187;28;20663;-72
2022/11/27 04:47:33;;;;;;;18.80;5.50;;;;;;;;;;5042329;28;20037;-72
2022/11/27 04:49:59;;;;;;;18.92;6.43;;;;;;;;;;5041448;28;20071;-72
2022/11/27 04:52:25;;;;;;;21.75;6.03;;;;;;;;;;5043468;28;20573;-72
2022/11/27 04:54:51;;;;;;;16.10;5.78;;;;;;;;;;5046558;28;20057;-70
2022/11/27 04:57:17;;;;;;;15.43;5.90;;;;;;;;;;5036994;28;20469;-72
2022/11/27 04:59:43;;;;;;;15.77;5.88;;;;;;;;;;5043817;28;20049;-72
2022/11/27 05:02:09;;;;;;;20.02;6.15;;;;;;;;;;5043072;28;20041;-71
2022/11/27 05:04:35;;;;;;;15.88;5.60;;;;;;;;;;5043949;28;20102;-71
2022/11/27 05:07:01;;;;;;;17.20;5.47;;;;;;;;;;5042759;28;20048;-73
2022/11/27 05:09:27;;;;;;;20.45;5.00;;;;;;;;;;5043634;28;20190;-71
2022/11/27 05:11:53;;;;;;;16.13;5.50;;;;;;;;;;5044525;28;20045;-70
2022/11/27 05:14:20;;;;;;;14.98;5.05;;;;;;;;;;5044108;28;20110;-72
2022/11/27 05:16:51;;;;;;;14.43;5.35;;;;;;;;;;5025920;28;20486;-70
2022/11/27 05:19:17;;;;;;;19.02;5.40;;;;;;;;;;5044006;28;20098;-74
2022/11/27 05:21:44;;;;;;;13.57;5.15;;;;;;;;;;5045961;28;20464;-70
2022/11/27 05:24:11;;;;;;;13.18;5.10;;;;;;;;;;5041036;28;20064;-73
2022/11/27 05:26:37;;;;;;;20.90;5.57;;;;;;;;;;5043537;28;20171;-72
2022/11/27 05:29:03;;;;;;;15.35;5.07;;;;;;;;;;5040794;28;20451;-72
2022/11/27 05:31:29;;;;;;;17.65;5.63;;;;;;;;;;5043947;28;20080;-72
2022/11/27 05:33:55;;;;;;;13.13;4.78;;;;;;;;;;5043651;28;20500;-71
2022/11/27 05:36:21;;;;;;;14.40;4.70;;;;;;;;;;5043078;28;20106;-72
2022/11/27 05:38:47;;;;;;;10.45;4.93;;;;;;;;;;5043917;28;20052;-74
2022/11/27 05:41:13;;;;;;;16.90;5.22;;;;;;;;;;5042913;28;20048;-71
2022/11/27 05:43:40;;;;;;;13.98;5.13;;;;;;;;;;5040535;28;20044;-71
2022/11/27 05:46:07;;;;;;;17.00;5.10;;;;;;;;;;5042738;28;20049;-71
2022/11/27 05:48:33;;;;;;;16.33;5.38;;;;;;;;;;5041847;28;20037;-70
2022/11/27 05:50:59;;;;;;;15.35;5.70;;;;;;;;;;5043175;28;20048;-71
2022/11/27 05:53:25;;;;;;;14.60;5.78;;;;;;;;;;5038933;28;20064;-70
2022/11/27 05:55:51;;;;;;;15.40;6.03;;;;;;;;;;5043873;28;20068;-71
2022/11/27 05:58:17;;;;;;;12.43;4.85;;;;;;;;;;5041697;28;20059;-70
2022/11/27 06:00:44;;;;;;;15.65;5.50;;;;;;;;;;5042080;28;20073;-70
2022/11/27 06:03:09;;;;;;;15.75;5.43;;;;;;;;;;5040929;28;20049;-70
2022/11/27 06:05:39;;;;;;;11.82;5.22;;;;;;;;;;5045764;28;20044;-72
2022/11/27 06:08:05;;;;;;;14.25;5.60;;;;;;;;;;5042836;28;20048;-72
2022/11/27 06:10:31;;;;;;;14.10;5.18;;;;;;;;;;5045060;28;20048;-70
2022/11/27 06:12:57;;;;;;;15.52;5.43;;;;;;;;;;5040186;28;20163;-72
2022/11/27 06:15:23;;;;;;;14.43;5.47;;;;;;;;;;5043120;28;20222;-71
2022/11/27 06:17:49;;;;;;;11.85;5.20;;;;;;;;;;5042526;28;20045;-72
2022/11/27 06:20:16;;;;;;;14.00;6.03;;;;;;;;;;5043112;28;20715;-72
2022/11/27 06:22:42;;;;;;;12.13;5.03;;;;;;;;;;5041940;28;20037;-72
2022/11/27 06:25:08;;;;;;;15.10;4.90;;;;;;;;;;5042143;28;21086;-72
2022/11/27 06:27:34;;;;;;;11.27;5.07;;;;;;;;;;5040740;28;20600;-71
2022/11/27 06:30:00;;;;;;;16.08;5.22;;;;;;;;;;5041622;28;20049;-72
2022/11/27 06:32:26;;;;;;;12.95;5.57;;;;;;;;;;5042032;28;20449;-72
2022/11/27 06:34:52;;;;;;;16.92;5.70;;;;;;;;;;5042180;28;20048;-71
2022/11/27 06:37:18;;;;;;;14.13;5.70;;;;;;;;;;5041629;28;20071;-71
2022/11/27 06:39:44;;;;;;;13.32;5.55;;;;;;;;;;5040070;28;20045;-72
2022/11/27 06:42:10;;;;;;;14.75;6.00;;;;;;;;;;5041328;28;20033;-69
2022/11/27 06:44:36;;;;;;;16.27;5.72;;;;;;;;;;5040149;28;20045;-71
2022/11/27 06:47:02;;;;;;;18.42;6.43;;;;;;;;;;5039655;28;20048;-71
2022/11/27 06:49:28;;;;;;;18.27;6.05;;;;;;;;;;5040899;28;20041;-72
2022/11/27 06:51:54;;;;;;;15.18;5.88;;;;;;;;;;5040036;28;20076;-70
2022/11/27 06:54:20;;;;;;;12.95;6.03;;;;;;;;;;5039384;28;20214;-70
2022/11/27 06:56:48;;;;;;;14.88;5.68;;;;;;;;;;5041005;28;20103;-72
2022/11/27 06:59:14;;;;;;;13.93;6.28;;;;;;;;;;5041233;28;20059;-73
2022/11/27 07:01:41;;;;;;;16.63;6.10;;;;;;;;;;5041485;28;20044;-70
2022/11/27 07:04:09;;;;;;;13.88;6.35;;;;;;;;;;5041912;28;20033;-70
2022/11/27 07:06:35;;;;;;;10.93;5.78;;;;;;;;;;5039312;28;20049;-70
2022/11/27 07:09:01;;;;;;;11.40;5.78;;;;;;;;;;5039587;28;20051;-70
2022/11/27 07:11:28;;;;;;;15.35;5.85;;;;;;;;;;5039741;28;20617;-73
2022/11/27 07:13:56;;;;;;;14.77;6.32;;;;;;;;;;5042080;28;20041;-72
2022/11/27 07:16:22;;;;;;;12.77;6.32;;;;;;;;;;5025326;28;20048;-71
2022/11/27 07:18:50;;;;;;;11.35;6.22;;;;;;;;;;5041656;28;20503;-71
2022/11/27 07:21:16;;;;;;;12.82;6.57;;;;;;;;;;5023143;28;20049;-73
2022/11/27 07:23:42;;;;;;;12.27;6.88;;;;;;;;;;5042681;28;20036;-72
2022/11/27 07:26:09;;;;;;;13.30;6.32;;;;;;;;;;5041607;28;20036;-72
2022/11/27 07:28:35;;;;;;;14.90;6.53;;;;;;;;;;5040855;28;20049;-69
2022/11/27 07:31:01;;;;;;;14.93;6.70;;;;;;;;;;5036364;28;20053;-71
2022/11/27 07:33:27;;;;;;;16.10;6.70;;;;;;;;;;5044372;28;20060;-71
2022/11/27 07:35:58;;;;;;;17.52;7.28;;;;;;;;;;5034840;28;20052;-71
2022/11/27 07:38:23;;;;;;;15.80;6.88;;;;;;;;;;5042670;28;20735;-69
2022/11/27 07:40:49;;;;;;;11.18;6.63;;;;;;;;;;5040380;28;20073;-72
2022/11/27 07:43:15;;;;;;;16.38;7.00;;;;;;;;;;5041295;28;20068;-71
2022/11/27 07:45:41;;;;;;;12.65;6.70;;;;;;;;;;5038708;28;20069;-70
2022/11/27 07:48:07;;;;;;;14.80;7.13;;;;;;;;;;5039968;28;20041;-72
2022/11/27 07:50:33;;;;;;;16.38;7.00;;;;;;;;;;5043628;28;20534;-72
2022/11/27 07:52:59;;;;;;;15.48;6.97;;;;;;;;;;5041404;28;20119;-71
2022/11/27 07:55:25;;;;;;;15.27;6.45;;;;;;;;;;5043993;28;20052;-71
2022/11/27 07:57:51;;;;;;;18.88;8.20;;;;;;;;;;5038760;28;20041;-70
2022/11/27 08:00:17;;;;;;;14.38;7.63;;;;;;;;;;5040558;28;20479;-69
2022/11/27 08:02:43;;;;;;;15.20;7.93;;;;;;;;;;5039340;28;20496;-71
2022/11/27 08:05:09;;;;;;;15.32;7.07;;;;;;;;;;5042946;28;20164;-71
2022/11/27 08:07:35;;;;;;;16.75;7.22;;;;;;;;;;5042696;28;20401;-71
2022/11/27 08:10:01;;;;;;;17.77;7.65;;;;;;;;;;5042971;28;20060;-71
2022/11/27 08:12:27;;;;;;;15.07;7.47;;;;;;;;;;5043000;28;20044;-71
2022/11/27 08:14:53;;;;;;;17.45;7.93;;;;;;;;;;5041451;28;20068;-69
2022/11/27 08:17:19;;;;;;;16.60;7.85;;;;;;;;;;5043653;28;20118;-69
2022/11/27 08:19:45;;;;;;;19.23;7.90;;;;;;;;;;5042727;28;20056;-71
2022/11/27 08:22:12;;;;;;;14.77;7.15;;;;;;;;;;5046230;28;20052;-69
2022/11/27 08:24:38;;;;;;;14.23;7.78;;;;;;;;;;5036195;28;20397;-70
2022/11/27 08:27:04;;;;;;;15.85;7.53;;;;;;;;;;5040641;28;20045;-71
2022/11/27 08:29:30;;;;;;;16.30;7.75;;;;;;;;;;5037959;28;20051;-71
2022/11/27 08:31:56;;;;;;;14.90;7.97;;;;;;;;;;5040634;28;20531;-71
2022/11/27 08:34:22;;;;;;;15.02;7.57;;;;;;;;;;5040377;28;20063;-70
2022/11/27 08:36:48;;;;;;;14.40;8.15;;;;;;;;;;5038644;28;20455;-72
2022/11/27 08:39:14;;;;;;;16.55;7.85;;;;;;;;;;5042570;28;20053;-74
2022/11/27 08:41:40;;;;;;;16.60;7.75;;;;;;;;;;5039454;28;20041;-72
2022/11/27 08:44:06;;;;;;;18.00;8.60;;;;;;;;;;5042042;28;20060;-70
2022/11/27 08:46:32;;;;;;;18.10;8.10;;;;;;;;;;5037070;28;20072;-71
2022/11/27 08:48:59;;;;;;;14.57;7.55;;;;;;;;;;5037978;28;20468;-72
2022/11/27 08:51:25;;;;;;;16.52;8.50;;;;;;;;;;5039333;28;20033;-72
2022/11/27 08:53:51;;;;;;;16.58;8.00;;;;;;;;;;5040073;28;20052;-72
2022/11/27 08:56:24;;;;;;;13.57;8.02;;;;;;;;;;5040837;28;20096;-71
2022/11/27 08:58:51;;;;;;;18.17;8.60;;;;;;;;;;5041686;28;20055;-71
2022/11/27 09:01:19;;;;;;;17.20;8.82;;;;;;;;;;5040659;28;20049;-73
2022/11/27 09:03:45;;;;;;;20.85;8.25;;;;;;;;;;5040647;28;20064;-71
2022/11/27 09:06:13;;;;;;;17.48;8.75;;;;;;;;;;5047924;28;20055;-73
2022/11/27 09:08:40;;;;;;;18.80;8.38;;;;;;;;;;5038920;28;20041;-71
2022/11/27 09:11:06;;;;;;;17.45;8.88;;;;;;;;;;5038221;28;20057;-72
2022/11/27 09:13:35;;;;;;;19.30;9.05;;;;;;;;;;5039394;28;20102;-74
2022/11/27 09:16:01;;;;;;;18.58;9.13;;;;;;;;;;5021126;28;20068;-72
2022/11/27 09:18:27;;;;;;;15.73;8.43;;;;;;;;;;5023862;28;20045;-72
2022/11/27 09:20:58;;;;;;;19.73;9.45;;;;;;;;;;5038830;28;20045;-74
2022/11/27 09:23:24;;;;;;;16.00;8.95;;;;;;;;;;5040037;28;20045;-72
2022/11/27 09:25:50;;;;;;;17.00;8.40;;;;;;;;;;5023601;28;21641;-71
2022/11/27 09:28:16;;;;;;;15.77;9.05;;;;;;;;;;5040978;28;20044;-72
2022/11/27 09:30:42;;;;;;;17.02;9.10;;;;;;;;;;5040437;28;20049;-73
2022/11/27 09:33:08;;;;;;;15.55;8.60;;;;;;;;;;5040127;28;20523;-73
2022/11/27 09:35:36;;;;;;;18.42;9.18;;;;;;;;;;5038399;28;20095;-72
2022/11/27 09:38:02;;;;;;;18.88;8.93;;;;;;;;;;5039906;28;20132;-74
2022/11/27 09:40:28;;;;;;;18.40;9.32;;;;;;;;;;5039420;28;20040;-71
2022/11/27 09:43:05;;;;;;;19.85;10.20;;;;;;;;;;5041535;28;20048;-72
2022/11/27 09:45:31;;;;;;;18.33;10.00;;;;;;;;;;5045785;28;20171;-71
2022/11/27 09:48:06;;;;;;;18.23;9.45;;;;;;;;;;5043541;28;21526;-71
2022/11/27 09:50:35;;;;;;;19.77;9.45;;;;;;;;;;5042480;28;20084;-70
2022/11/27 09:53:23;;;;;;;21.35;9.77;;;;;;;;;;5025627;28;20036;-70
2022/11/27 09:55:50;;;;;;;18.77;9.77;;;;;;;;;;5046530;28;20496;-71
2022/11/27 09:58:29;;;;;;;18.95;9.57;;;;;;;;;;5046135;28;20060;-73
2022/11/27 10:00:55;;;;;;;22.75;9.95;;;;;;;;;;5043850;28;20060;-72
2022/11/27 10:03:23;;;;;;;19.08;9.55;;;;;;;;;;5045327;28;20049;-72
2022/11/27 10:05:55;;;;;;;21.15;9.85;;;;;;;;;;5045405;28;20044;-73
2022/11/27 10:08:34;;;;;;;18.13;10.10;;;;;;;;;;5039966;28;20045;-76
2022/11/27 10:11:06;;;;;;;18.77;9.55;;;;;;;;;;5040194;28;20412;-75
2022/11/27 10:13:32;;;;;;;23.67;10.18;;;;;;;;;;5046175;28;20147;-75
2022/11/27 10:16:17;;;;;;;22.23;10.48;;;;;;;;;;5046321;28;20120;-76
2022/11/27 10:18:46;;;;;;;20.70;10.05;;;;;;;;;;5046181;28;20045;-76
2022/11/27 10:21:15;;;;;;;17.13;9.50;;;;;;;;;;5041370;28;20059;-74
2022/11/27 10:23:45;;;;;;;22.52;10.10;;;;;;;;;;5042310;28;20047;-74
2022/11/27 10:26:43;;;;;;;22.20;10.45;;;;;;;;;;5034318;28;20047;-74
2022/11/27 10:29:24;;;;;;;16.70;9.68;;;;;;;;;;5021281;28;20047;-75
2022/11/27 10:31:53;;;;;;;20.33;9.68;;;;;;;;;;5040013;28;20045;-73
2022/11/27 10:34:34;;;;;;;21.30;9.38;;;;;;;;;;5022223;28;20037;-73
2022/11/27 10:37:05;;;;;;;20.60;9.60;;;;;;;;;;5034943;28;20040;-75
2022/11/27 10:39:42;;;;;;;19.43;9.90;;;;;;;;;;5034126;28;20051;-73
2022/11/27 10:42:10;;;;;;;18.00;9.55;;;;;;;;;;5035806;28;20037;-74
2022/11/27 10:44:42;;;;;;;20.02;9.23;;;;;;;;;;5034572;28;20054;-73
2022/11/27 10:47:09;;;;;;;15.60;9.25;;;;;;;;;;5034993;28;20054;-73
2022/11/27 10:49:38;;;;;;;17.23;9.30;;;;;;;;;;5040820;28;20263;-72
2022/11/27 10:52:04;;;;;;;19.70;9.73;;;;;;;;;;5035285;28;20049;-74
2022/11/27 10:54:33;;;;;;;19.58;9.73;;;;;;;;;;5021293;28;20052;-73
2022/11/27 10:57:18;;;;;;;19.27;9.82;;;;;;;;;;5038336;28;20491;-72
2022/11/27 10:59:50;;;;;;;21.05;9.50;;;;;;;;;;5040542;28;20478;-75
2022/11/27 11:02:26;;;;;;;20.45;10.55;;;;;;;;;;5039417;28;20079;-72
2022/11/27 11:04:52;;;;;;;17.75;9.65;;;;;;;;;;5037285;28;20052;-75
2022/11/27 11:07:24;;;;;;;17.25;9.07;;;;;;;;;;5038628;28;20702;-73
2022/11/27 11:09:50;;;;;;;20.65;9.30;;;;;;;;;;5023744;28;20041;-72
2022/11/27 11:12:20;;;;;;;23.50;9.95;;;;;;;;;;5023868;28;20053;-75
2022/11/27 11:14:54;;;;;;;17.08;9.85;;;;;;;;;;5023848;28;20106;-72
2022/11/27 11:17:27;;;;;;;17.08;8.73;;;;;;;;;;5025365;28;20041;-73
2022/11/27 11:19:53;;;;;;;20.17;9.73;;;;;;;;;;5037151;28;20533;-73
2022/11/27 11:22:19;;;;;;;18.65;9.63;;;;;;;;;;5039042;28;20068;-70
2022/11/27 11:24:47;;;;;;;17.50;9.02;;;;;;;;;;5037165;28;20124;-72
2022/11/27 11:27:14;;;;;;;17.38;8.95;;;;;;;;;;5034485;28;20046;-71
2022/11/27 11:29:45;;;;;;;21.23;11.18;;;;;;;;;;5037824;28;20053;-72
2022/11/27 11:32:31;;;;;;;17.45;10.90;;;;;;;;;;5037609;28;20187;-72
2022/11/27 11:35:00;;;;;;;15.38;10.50;;;;;;;;;;5037991;28;20048;-72
2022/11/27 11:37:26;;;;;;;18.30;10.25;;;;;;;;;;5023688;28;20053;-73
2022/11/27 11:39:57;;;;;;;20.52;10.50;;;;;;;;;;5037528;28;20522;-71
2022/11/27 11:42:25;;;;;;;18.73;10.68;;;;;;;;;;5036525;28;20136;-71
2022/11/27 11:44:53;;;;;;;18.98;9.95;;;;;;;;;;5035262;28;20041;-73
2022/11/27 11:47:21;;;;;;;17.25;10.27;;;;;;;;;;5036201;28;20045;-72
2022/11/27 11:49:49;;;;;;;19.55;9.65;;;;;;;;;;5035561;28;20048;-72
2022/11/27 11:52:30;;;;;;;14.90;9.30;;;;;;;;;;5034031;28;20053;-70
2022/11/27 11:55:05;;;;;;;20.38;9.57;;;;;;;;;;5036987;28;20056;-71
2022/11/27 11:57:42;;;;;;;18.98;9.98;;;;;;;;;;5037851;28;20130;-72
2022/11/27 12:00:23;;;;;;;18.20;9.18;;;;;;;;;;5021462;28;20079;-72
2022/11/27 12:02:49;;;;;;;16.58;9.35;;;;;;;;;;5040619;28;20041;-73
2022/11/27 12:05:21;;;;;;;14.40;9.73;;;;;;;;;;5036740;28;20053;-71
2022/11/27 12:07:53;;;;;;;16.67;9.32;;;;;;;;;;5038305;28;20037;-71
2022/11/27 12:10:32;;;;;;;19.10;8.45;;;;;;;;;;5036948;28;20041;-72
2022/11/27 12:13:04;;;;;;;14.07;8.18;;;;;;;;;;5039427;28;20388;-70
2022/11/27 12:16:03;;;;;;;14.30;7.97;;;;;;;;;;5037440;28;20094;-74
2022/11/27 12:18:48;;;;;;;17.13;7.93;;;;;;;;;;5006728;28;20044;-71
2022/11/27 12:21:17;;;;;;;17.75;8.32;;;;;;;;;;5040860;28;20131;-74
2022/11/27 12:23:43;;;;;;;13.13;8.15;;;;;;;;;;5042102;28;20045;-74
2022/11/27 12:26:19;;;;;;;14.73;8.57;;;;;;;;;;5042483;28;20624;-72
2022/11/27 12:28:53;;;;;;;15.13;8.13;;;;;;;;;;5042096;28;20064;-72
2022/11/27 12:31:27;;;;;;;15.75;8.75;;;;;;;;;;5038752;28;20049;-70
2022/11/27 12:34:00;;;;;;;13.85;8.38;;;;;;;;;;5040376;28;20598;-71
2022/11/27 12:36:37;;;;;;;18.00;8.73;;;;;;;;;;5040415;28;20071;-72
2022/11/27 12:39:15;;;;;;;13.27;7.85;;;;;;;;;;5041016;28;20045;-72
2022/11/27 12:41:47;;;;;;;12.70;8.10;;;;;;;;;;5038270;28;20049;-71
2022/11/27 12:44:32;;;;;;;16.95;8.55;;;;;;;;;;5043183;28;20047;-71
2022/11/27 12:47:00;;;;;;;13.90;8.35;;;;;;;;;;5040694;28;20049;-72
2022/11/27 12:49:31;;;;;;;19.48;8.82;;;;;;;;;;5039373;28;20053;-70
2022/11/27 12:52:09;;;;;;;13.80;8.60;;;;;;;;;;5026427;28;20045;-72
2022/11/27 12:54:55;;;;;;;13.32;9.07;;;;;;;;;;5040422;28;20049;-72
2022/11/27 12:57:26;;;;;;;17.52;8.95;;;;;;;;;;5040596;28;20044;-72
2022/11/27 13:00:00;;;;;;;16.95;8.57;;;;;;;;;;5042903;28;20048;-71
2022/11/27 13:02:46;;;;;;;17.33;8.70;;;;;;;;;;5040671;28;20079;-72
2022/11/27 13:05:19;;;;;;;15.93;9.38;;;;;;;;;;5039367;28;20050;-72
2022/11/27 13:07:51;;;;;;;15.30;9.10;;;;;;;;;;5037753;28;20455;-71
2022/11/27 13:10:26;;;;;;;13.30;9.52;;;;;;;;;;5039176;28;20054;-72
2022/11/27 13:13:01;;;;;;;13.75;8.65;;;;;;;;;;5038586;28;20045;-71
2022/11/27 13:15:32;;;;;;;17.27;10.10;;;;;;;;;;5038926;28;20049;-70
2022/11/27 13:18:02;;;;;;;14.50;9.20;;;;;;;;;;5052109;28;20072;-71
2022/11/27 13:20:33;;;;;;;14.27;9.30;;;;;;;;;;5021655;28;20056;-71
2022/11/27 13:22:59;;;;;;;15.30;9.02;;;;;;;;;;5038123;28;20568;-72
2022/11/27 13:25:26;;;;;;;19.33;9.30;;;;;;;;;;5042260;28;20522;-72
2022/11/27 13:27:53;;;;;;;13.82;9.18;;;;;;;;;;5021521;28;20041;-71
2022/11/27 13:30:19;;;;;;;14.45;8.13;;;;;;;;;;5039453;28;20055;-69
2022/11/27 13:32:50;;;;;;;18.95;13.55;;;;;;;;;;5038240;28;20055;-72
2022/11/27 13:35:27;;;;;;;19.48;12.82;;;;;;;;;;5039330;28;20080;-71
2022/11/27 13:37:56;;;;;;;21.63;12.18;;;;;;;;;;5042691;28;20052;-72
2022/11/27 13:40:26;;;;;;;19.90;11.18;;;;;;;;;;5041124;28;20140;-71
2022/11/27 13:42:54;;;;;;;13.20;9.32;;;;;;;;;;5042030;28;20069;-72
2022/11/27 13:45:23;;;;;;;18.05;10.32;;;;;;;;;;5037793;28;20403;-72
2022/11/27 13:47:50;;;;;;;14.68;9.55;;;;;;;;;;5041220;28;20423;-71
2022/11/27 13:50:18;;;;;;;12.55;7.70;;;;;;;;;;5041445;28;20140;-72
2022/11/27 13:52:58;;;;;;;11.43;7.82;;;;;;;;;;5041228;28;20045;-71
2022/11/27 13:55:29;;;;;;;13.40;7.40;;;;;;;;;;5041730;28;20103;-70
2022/11/27 13:57:56;;;;;;;10.90;7.28;;;;;;;;;;5040970;28;20136;-72
2022/11/27 14:00:52;;;;;;;11.93;7.72;;;;;;;;;;5041910;28;20053;-72
2022/11/27 14:03:23;;;;;;;11.77;8.10;;;;;;;;;;5004405;28;20045;-72
2022/11/27 14:05:49;;;;;;;15.77;9.10;;;;;;;;;;5043402;28;20643;-72
2022/11/27 14:08:23;;;;;;;19.48;9.52;;;;;;;;;;5038591;28;20072;-71
2022/11/27 14:10:55;;;;;;;16.63;9.25;;;;;;;;;;5042318;28;20090;-72
2022/11/27 14:13:22;;;;;;;17.10;9.90;;;;;;;;;;5024729;28;20408;-71
2022/11/27 14:16:00;;;;;;;13.55;9.25;;;;;;;;;;5044593;28;20048;-71
2022/11/27 14:18:27;;;;;;;14.95;9.57;;;;;;;;;;5038910;28;20048;-72
2022/11/27 14:20:57;;;;;;;16.60;9.40;;;;;;;;;;5039684;28;20037;-70
2022/11/27 14:23:28;;;;;;;17.67;10.20;;;;;;;;;;5039527;28;20047;-70
2022/11/27 14:26:05;;;;;;;17.10;9.20;;;;;;;;;;5023088;28;20048;-72
2022/11/27 14:28:34;;;;;;;17.83;9.68;;;;;;;;;;5024674;28;20138;-71
2022/11/27 14:31:01;;;;;;;12.93;9.32;;;;;;;;;;5038296;28;20171;-74
2022/11/27 14:33:32;;;;;;;17.90;9.80;;;;;;;;;;5044661;28;20041;-70
2022/11/27 14:35:59;;;;;;;15.25;9.93;;;;;;;;;;5044341;28;20040;-71
2022/11/27 14:38:26;;;;;;;17.73;10.35;;;;;;;;;;5044725;28;20060;-71
2022/11/27 14:40:53;;;;;;;15.02;9.77;;;;;;;;;;5044213;28;20045;-70